• Join FlightAware (Why Join?)
  • Login
  • US Flag 
07:07PM EDT


 

Airport Tracker/Info


-or-


 

Live Flight TrackerFlight Track Log ✈ EJA375 ✈ 26-Apr-2013 ✈ KSDL - KBOS

Flight Track Log - Related Links

Times and Time Zones

All times are in EDT time to prevent confusion due to time zone crossing. See the EJA375 flight status page for this flight to view local times or setup timezone preferences in your user account.

Time Position Orientation Groundspeed Altitude Reporting Facility
EDT Latitude Longitude Course Direction KTS MPH feet Rate Location/Type
10:39AM 33.6664 -111.9067 55° Northeast 214 246 4,300  Level Albuquerque Center
10:40AM 33.6939 -111.9828 293° West 305 351 6,800 3,060 Climbing Albuquerque Center
10:41AM 33.7650 -111.9500 21° North 281 323 10,600 2,520 Climbing Albuquerque Center
10:42AM 33.8367 -111.8950 33° Northeast 304 350 12,000 1,500 Climbing Albuquerque Center
10:43AM 33.9183 -111.8319 33° Northeast 339 390 13,700 2,040 Climbing Albuquerque Center
10:44AM 34.0455 -111.7245 55° Northeast  Level FlightAware Approximate
10:44AM 34.0178 -111.7564 32° Northeast 352 405 16,300  Level Albuquerque Center
10:45AM 34.1031 -111.6850 35° Northeast 363 418 17,800 1,620 Climbing Albuquerque Center
10:46AM 34.1689 -111.5969 48° Northeast 370 426 19,700 1,020 Climbing Albuquerque Center
10:47AM 34.2506 -111.5042 43° Northeast 390 449 20,000 1,140 Climbing Albuquerque Center
10:48AM 34.3528 -111.3869 43° Northeast 415 478 22,100 1,980 Climbing Albuquerque Center
10:49AM 34.4400 -111.2872 43° Northeast 426 490 24,100 1,920 Climbing Albuquerque Center
10:50AM 34.5292 -111.1844 44° Northeast 437 503 26,100 1,800 Climbing Albuquerque Center
10:51AM 34.6194 -111.0794 44° Northeast 445 512 27,900 1,560 Climbing Albuquerque Center
10:52AM 34.7114 -110.9742 43° Northeast 451 519 29,400 1,380 Climbing Albuquerque Center
10:53AM 34.8233 -110.8436 44° Northeast 460 529 30,800 720 Climbing Albuquerque Center
10:54AM 34.9228 -110.7253 44° Northeast 481 554 31,000 60 Climbing Albuquerque Center
10:55AM 35.0164 -110.6131 44° Northeast 490 564 31,000  Level Albuquerque Center
10:56AM 35.1303 -110.4817 43° Northeast 501 577 31,000 660 Level Albuquerque Center
10:57AM 35.2261 -110.3706 43° Northeast 499 574 32,400 1,440 Climbing Albuquerque Center
10:58AM 35.3344 -110.2400 44° Northeast 491 565 34,000 1,380 Climbing Albuquerque Center
10:59AM 35.4278 -110.1308 44° Northeast 486 559 35,300 1,200 Climbing Albuquerque Center
11:00AM 35.5342 -110.0028 44° Northeast 481 554 36,500 1,260 Climbing Albuquerque Center
11:01AM 35.6242 -109.8967 44° Northeast 472 543 38,000 1,200 Climbing Albuquerque Center
11:02AM 35.7078 -109.7889 46° Northeast 460 529 39,100 960 Climbing Albuquerque Center
11:03AM 35.7911 -109.6525 53° Northeast 448 516 40,000 660 Climbing Albuquerque Center
11:04AM 35.8597 -109.5303 55° Northeast 451 519 40,500 540 Climbing Albuquerque Center
11:05AM 35.8917 -109.4681 58° Northeast 453 521 40,800 360 Climbing Denver Center
11:06AM 35.9564 -109.3417 58° Northeast 453 521 41,000 60 Climbing Denver Center
11:06AM 36.0006 -109.2547 58° Northeast 457 526 41,000  Level Albuquerque Center
11:07AM 36.0758 -109.1089 57° Northeast 466 536 41,000  Level Albuquerque Center
11:08AM 36.1017 -109.0575 58° Northeast 470 541 41,000  Level Denver Center
11:09AM 36.1722 -108.9197 58° Northeast 478 550 41,000  Level Denver Center
11:10AM 36.2536 -108.7575 58° Northeast 484 557 41,000  Level Denver Center
11:11AM 36.3169 -108.6325 58° Northeast 483 556 41,000  Level Denver Center
11:12AM 36.3881 -108.4886 58° Northeast 478 550 41,000  Level Denver Center
11:13AM 36.4656 -108.3336 58° Northeast 473 544 41,000  Level Denver Center
11:14AM 36.5317 -108.2006 58° Northeast 472 543 41,000  Level Denver Center
11:15AM 36.6083 -108.0442 59° Northeast 474 545 41,000  Level Denver Center
11:16AM 36.6728 -107.9122 59° Northeast 468 539 41,000  Level Denver Center
11:17AM 36.7494 -107.7586 58° Northeast 466 536 41,000  Level Denver Center
11:18AM 36.8136 -107.6242 59° Northeast 470 541 41,000  Level Denver Center
11:19AM 36.8903 -107.4683 58° Northeast 471 542 41,000  Level Denver Center
11:20AM 36.9533 -107.3367 59° Northeast 463 533 41,000  Level Denver Center
11:21AM 37.0292 -107.1800 59° Northeast 471 542 41,000  Level Denver Center
11:22AM 37.0928 -107.0453 59° Northeast 470 541 41,000  Level Denver Center
11:23AM 37.1575 -106.9111 59° Northeast 470 541 41,000  Level Denver Center
11:24AM 37.2328 -106.7544 59° Northeast 470 541 41,000  Level Denver Center
11:25AM 37.2953 -106.6217 59° Northeast 465 535 41,000  Level Denver Center
11:26AM 37.3700 -106.4644 59° Northeast 468 539 41,000  Level Denver Center
11:27AM 37.4364 -106.3194 60° Northeast 466 536 41,000  Level Denver Center
11:28AM 37.5069 -106.1686 59° Northeast 467 537 41,000  Level Denver Center
11:30AM 37.5722 -106.0244 60° Northeast 469 540 41,000  Level Denver Center
11:31AM 37.6364 -105.8886 59° Northeast 470 541 41,000  Level Denver Center
11:32AM 37.7092 -105.7300 60° Northeast 468 539 41,000  Level Denver Center
11:33AM 37.7719 -105.5925 60° Northeast 469 540 41,000  Level Denver Center
11:34AM 37.8456 -105.4317 60° Northeast 472 543 41,000  Level Denver Center
11:35AM 37.9075 -105.2947 60° Northeast 469 540 41,000  Level Denver Center
11:36AM 37.9803 -105.1328 60° Northeast 470 541 41,000  Level Denver Center
11:37AM 38.0431 -104.9944 60° Northeast 471 542 41,000  Level Denver Center
11:38AM 38.1056 -104.8547 60° Northeast 475 547 41,000  Level Denver Center
11:39AM 38.1778 -104.6917 61° Northeast 472 543 41,000  Level Denver Center
11:40AM 38.2400 -104.5508 61° Northeast 475 547 41,000  Level Denver Center
11:41AM 38.3125 -104.3878 60° Northeast 473 544 41,000  Level Denver Center
11:42AM 38.3722 -104.2406 63° Northeast 478 550 41,000  Level Denver Center
11:43AM 38.4408 -104.0781 62° Northeast 473 544 41,000  Level Denver Center
11:44AM 38.4994 -103.9339 63° Northeast 475 547 41,000  Level Denver Center
11:45AM 38.5686 -103.7642 62° Northeast 480 552 41,000  Level Denver Center
11:46AM 38.6289 -103.6197 62° Northeast 479 551 41,000  Level Denver Center
11:47AM 38.6878 -103.4747 62° Northeast 479 551 41,000  Level Denver Center
11:48AM 38.7550 -103.3069 63° Northeast 482 555 41,000  Level Denver Center
11:49AM 38.8156 -103.1547 63° Northeast 479 551 41,000  Level Denver Center
11:50AM 38.8772 -103.0008 63° Northeast 481 554 41,000  Level Denver Center
11:51AM 38.9481 -102.8225 63° Northeast 478 550 41,000  Level Denver Center
11:52AM 39.0094 -102.6675 63° Northeast 482 555 41,000  Level Denver Center
11:53AM 39.0672 -102.5219 63° Northeast 478 550 41,000  Level Denver Center
11:54AM 39.1342 -102.3492 63° Northeast 483 556 41,000  Level Denver Center
11:56AM 39.1584 -102.1584 85° East  Level FlightAware Approximate
11:56AM 39.2481 -102.0550 85° East 480 552 41,000  Level Denver Center
11:57AM 39.3206 -101.8872 61° Northeast 480 552 41,000  Level Denver Center
11:58AM 39.3844 -101.7378 61° Northeast 476 548 41,000  Level Denver Center
12:00PM 39.4553 -101.5700 61° Northeast 476 548 41,000  Level Denver Center
12:01PM 39.5169 -101.4272 61° Northeast 476 548 41,000  Level Denver Center
12:02PM 39.5878 -101.2597 61° Northeast 475 547 41,000  Level Denver Center
12:03PM 39.6483 -101.1131 62° Northeast 481 554 41,000  Level Denver Center
12:04PM 39.7194 -100.9439 61° Northeast 479 551 41,000  Level Denver Center
12:05PM 39.7808 -100.7989 61° Northeast 480 552 41,000  Level Denver Center
12:06PM 39.8511 -100.6269 62° Northeast 482 555 41,000  Level Denver Center
12:07PM 39.9108 -100.4800 62° Northeast 483 556 41,000  Level Denver Center
12:08PM 39.9914 -100.2847 62° Northeast 481 554 41,000  Level Denver Center
12:09PM 40.0508 -100.1392 62° Northeast 478 550 41,000  Level Denver Center
12:10PM 40.1197 -99.9678 62° Northeast 479 551 41,000  Level Denver Center
12:11PM 40.1858 -99.8058 62° Northeast 481 554 41,000  Level Denver Center
12:12PM 40.2469 -99.6522 62° Northeast 478 550 41,000  Level Denver Center
12:13PM 40.3083 -99.4975 62° Northeast 479 551 41,000  Level Denver Center
12:14PM 40.3658 -99.3414 64° Northeast 477 549 41,000  Level Denver Center
12:15PM 40.4036 -99.2097 69° East 480 552 41,000  Level Minneapolis Center
12:16PM 40.4492 -99.0458 70° East 481 554 41,000  Level Minneapolis Center
12:17PM 40.4944 -98.8789 70° East 485 558 41,000  Level Minneapolis Center
12:18PM 40.5308 -98.7472 70° East 484 557 41,000  Level Minneapolis Center
12:19PM 40.5861 -98.5489 70° East 485 558 41,000  Level Minneapolis Center
12:20PM 40.6400 -98.3481 70° East 487 560 41,000  Level Minneapolis Center
12:21PM 40.6844 -98.1836 70° East 483 556 41,000  Level Minneapolis Center
12:22PM 40.7289 -98.0175 71° East 483 556 41,000  Level Minneapolis Center
12:23PM 40.7739 -97.8503 70° East 484 557 41,000  Level Minneapolis Center
12:24PM 40.8172 -97.6828 71° East 484 557 41,000  Level Minneapolis Center
12:25PM 40.8611 -97.5150 71° East 485 558 41,000  Level Minneapolis Center
12:26PM 40.9125 -97.3153 71° East 486 559 41,000  Level Minneapolis Center
12:27PM 40.9567 -97.1475 71° East 485 558 41,000  Level Minneapolis Center
12:28PM 40.9914 -97.0122 71° East 485 558 41,000  Level Minneapolis Center
12:29PM 41.0431 -96.8097 71° East 486 559 41,000  Level Minneapolis Center
12:30PM 41.0861 -96.6397 71° East 486 559 41,000  Level Minneapolis Center
12:31PM 41.1378 -96.4353 71° East 489 563 41,000  Level Minneapolis Center
12:32PM 41.1817 -96.2572 72° East 494 568 41,000  Level Minneapolis Center
12:34PM 41.2239 -96.0861 72° East 490 564 41,000  Level Minneapolis Center
12:35PM 41.2622 -95.9139 73° East 487 560 41,000  Level Minneapolis Center
12:36PM 41.3053 -95.7400 72° East 492 566 41,000  Level Minneapolis Center
12:37PM 41.3544 -95.5500 71° East 495 570 41,000  Level Minneapolis Center
12:38PM 41.3967 -95.3772 72° East 493 567 41,000  Level Minneapolis Center
12:39PM 41.4378 -95.2025 73° East 495 570 41,000  Level Minneapolis Center
12:40PM 41.4794 -95.0283 72° East 495 570 41,000  Level Minneapolis Center
12:41PM 41.5494 -94.7283 73° East 493 567 41,000  Level Chicago Center
12:42PM 41.5686 -94.6442 73° East 494 568 41,000  Level Minneapolis Center
12:43PM 41.6100 -94.4683 72° East 497 572 41,000  Level Minneapolis Center
12:44PM 41.6492 -94.2939 73° East 492 566 41,000  Level Minneapolis Center
12:45PM 41.6892 -94.1172 73° East 495 570 41,000  Level Minneapolis Center
12:46PM 41.7297 -93.9411 73° East 495 570 41,000  Level Minneapolis Center
12:47PM 41.7719 -93.7503 73° East 497 572 41,000  Level Minneapolis Center
12:48PM 41.8181 -93.5394 74° East 495 570 41,000  Level Minneapolis Center
12:49PM 41.8658 -93.3242 73° East 501 577 41,000  Level Minneapolis Center
12:50PM 41.9119 -93.1125 74° East 497 572 41,000  Level Minneapolis Center
12:52PM 41.9500 -92.9342 74° East 495 570 41,000  Level Minneapolis Center
12:53PM 41.9958 -92.7222 74° East 497 572 41,000  Level Minneapolis Center
12:54PM 42.0333 -92.5419 74° East 499 574 41,000  Level Chicago Center
12:55PM 42.0778 -92.3283 74° East 500 575 41,000  Level Chicago Center
12:56PM 42.1139 -92.1483 75° East 502 578 41,000  Level Chicago Center
12:57PM 42.1358 -91.9650 81° East 504 580 41,000  Level Chicago Center
12:58PM 42.1564 -91.7817 81° East 505 581 41,000  Level Chicago Center
12:59PM 42.1817 -91.5606 81° East 506 582 41,000  Level Chicago Center
01:00PM 42.2014 -91.3764 82° East 504 580 41,000  Level Chicago Center
01:01PM 42.2222 -91.1925 81° East 505 581 41,000  Level Chicago Center
01:02PM 42.2414 -91.0072 82° East 506 582 41,000  Level Chicago Center
01:03PM 42.2603 -90.8228 82° East 503 579 41,000  Level Chicago Center
01:04PM 42.2822 -90.5997 82° East 505 581 41,000  Level Chicago Center
01:05PM 42.3017 -90.4111 82° East 511 588 41,000  Level Chicago Center
01:06PM 42.3200 -90.2236 82° East 510 587 41,000  Level Chicago Center
01:07PM 42.3392 -90.0350 82° East 512 589 41,000  Level Chicago Center
01:08PM 42.3589 -89.8211 83° East 506 582 41,000  Level Chicago Center
01:09PM 42.3769 -89.6303 83° East 511 588 41,000  Level Chicago Center
01:10PM 42.3947 -89.4400 83° East 511 588 41,000  Level Chicago Center
01:11PM 42.4122 -89.2497 83° East 510 587 41,000  Level Chicago Center
01:12PM 42.4319 -89.0289 83° East 508 585 41,000  Level Chicago Center
01:13PM 42.4486 -88.8375 83° East 512 589 41,000  Level Chicago Center
01:14PM 42.4644 -88.6494 83° East 507 583 41,000  Level Chicago Center
01:16PM 42.4800 -88.4603 84° East 506 582 41,000  Level Chicago Center
01:17PM 42.4958 -88.2686 84° East 507 583 41,000  Level Chicago Center
01:18PM 42.5142 -88.0464 84° East 509 586 41,000  Level Chicago Center
01:19PM 42.5286 -87.8572 84° East 508 585 41,000  Level Chicago Center
01:20PM 42.5411 -87.6853 84° East 511 588 41,000  Level Chicago Center
01:21PM 42.5589 -87.4547 84° East 512 589 41,000  Level Chicago Center
01:22PM 42.5722 -87.2628 85° East 510 587 41,000  Level Chicago Center
01:23PM 42.5875 -87.0678 84° East 514 592 41,000  Level Chicago Center
01:24PM 42.6008 -86.8742 85° East 517 595 41,000  Level Chicago Center
01:25PM 42.6142 -86.6833 85° East 513 590 41,000  Level Chicago Center
01:26PM 42.6264 -86.4911 85° East 515 593 41,000  Level Chicago Center
01:27PM 42.6406 -86.2597 85° East 516 594 41,000  Level Chicago Center
01:28PM 42.6522 -86.0678 85° East 517 595 41,000  Level Chicago Center
01:29PM 42.6639 -85.8767 85° East 515 593 41,000  Level Chicago Center
01:30PM 42.6747 -85.6856 86° East 514 592 41,000  Level Chicago Center
01:31PM 42.6864 -85.4953 85° East 512 589 41,000  Level Chicago Center
01:32PM 42.6989 -85.2653 86° East 513 590 41,000  Level Chicago Center
01:33PM 42.7092 -85.0750 86° East 509 586 41,000  Level Chicago Center
01:34PM 42.7194 -84.8833 86° East 509 586 41,000  Level Chicago Center
01:35PM 42.7292 -84.6931 86° East 507 583 41,000  Level Chicago Center
01:35PM 42.7294 -84.6114 90° East 508 585 41,000  Level Cleveland Center
01:36PM 42.7400 -84.4225 86° East 503 579 41,000  Level Cleveland Center
01:37PM 42.7478 -84.2533 86° East 503 579 41,000  Level Cleveland Center
01:38PM 42.7558 -84.0614 87° East 498 573 41,000  Level Cleveland Center
01:39PM 42.7653 -83.8753 86° East 498 573 41,000  Level Cleveland Center
01:40PM 42.7728 -83.6889 87° East 498 573 41,000  Level Cleveland Center
01:41PM 42.7819 -83.4969 86° East 498 573 41,000  Level Cleveland Center
01:42PM 42.7864 -83.3133 88° East 493 567 41,000  Level Cleveland Center
01:43PM 42.7947 -83.1242 87° East 498 573 41,000  Level Cleveland Center
01:44PM 42.8008 -82.9347 87° East 498 573 41,000  Level Cleveland Center
01:45PM 42.8069 -82.7256 88° East 492 566 41,000  Level Cleveland Center
01:46PM 42.8144 -82.5389 87° East 498 573 41,000  Level Cleveland Center
01:47PM 42.8178 -82.3467 89° East 498 573 41,000  Level Cleveland Center
01:48PM 42.8247 -82.1542 87° East 498 573 41,000  Level Cleveland Center
01:49PM 42.8292 -81.9675 88° East 498 573 41,000  Level Cleveland Center
01:50PM 42.8333 -81.7778 88° East 498 573 41,000  Level Cleveland Center
01:51PM 42.8392 -81.6167 87° East 493 567 41,000  Level Cleveland Center
01:52PM 42.8428 -81.4269 88° East 493 567 41,000  Level Cleveland Center
01:53PM 42.8461 -81.2372 89° East 498 573 41,000  Level Cleveland Center
01:55PM 42.8514 -80.9203 89° East 448 516 41,000  Level Cleveland Center
01:56PM 42.8539 -80.7361 89° East 479 551 41,000  Level Cleveland Center
01:57PM 42.8583 -80.5492 88° East 486 559 41,000  Level Cleveland Center
01:58PM 42.8603 -80.3822 89° East 486 559 41,000  Level Cleveland Center
01:59PM 42.8617 -80.1922 89° East 493 567 41,000  Level Cleveland Center
02:00PM 42.8631 -80.0083 89° East 493 567 41,000  Level Cleveland Center
02:01PM 42.8683 -79.8211 88° East 493 567 41,000  Level Cleveland Center
02:02PM 42.8689 -79.6342 90° East 493 567 41,000  Level Cleveland Center
02:03PM 42.8672 -79.4472 91° East 493 567 41,000  Level Cleveland Center
02:04PM 42.8694 -79.2575 89° East 493 567 41,000  Level Cleveland Center
02:05PM 42.8672 -79.0733 91° East 493 567 41,000  Level Cleveland Center
02:06PM 42.8686 -78.8836 89° East 493 567 41,000  Level Cleveland Center
02:07PM 42.8678 -78.6939 90° East 493 567 41,000  Level Cleveland Center
02:08PM 42.8667 -78.5069 90° East 493 567 41,000  Level Cleveland Center
02:09PM 42.8675 -78.3197 90° East 493 567 41,000  Level Cleveland Center
02:10PM 42.8636 -78.1303 92° East 493 567 41,000  Level Cleveland Center
02:11PM 42.8614 -77.9433 91° East 493 567 41,000  Level Cleveland Center
02:13PM 42.8561 -77.5650 91° East 497 572 41,000  Level Boston Center
02:14PM 42.8561 -77.3778 90° East 497 572 41,000  Level Boston Center
02:15PM 42.8528 -77.2103 91° East 497 572 41,000  Level Boston Center
02:16PM 42.8500 -77.0258 91° East 497 572 41,000  Level Boston Center
02:17PM 42.8447 -76.8386 92° East 497 572 41,000  Level Boston Center
02:18PM 42.8408 -76.6117 91° East 497 572 41,000  Level Boston Center
02:19PM 42.8369 -76.4272 92° East 497 572 41,000  Level Boston Center
02:20PM 42.8331 -76.2400 92° East 497 572 41,000  Level Boston Center
02:21PM 42.8278 -76.0161 92° East 497 572 41,000  Level Boston Center
02:22PM 42.8231 -75.8289 92° East 497 572 41,000 -120 Level Boston Center
02:23PM 42.8181 -75.6444 92° East 492 566 40,800 -900 Descending Boston Center
02:24PM 42.8106 -75.4544 93° East 498 573 39,300 -1,500 Descending Boston Center
02:25PM 42.8050 -75.2703 92° East 498 573 37,800 -1,200 Descending Boston Center
02:26PM 42.7994 -75.0633 92° East 498 573 37,000 -420 Descending Boston Center
02:27PM 42.7892 -74.8733 94° East 498 573 37,000  Level Boston Center
02:28PM 42.7825 -74.6864 93° East 498 573 37,000  Level Boston Center
02:30PM 42.7778 -74.4994 92° East 498 573 37,000  Level Boston Center
02:31PM 42.7669 -74.2728 94° East 498 573 37,000  Level Boston Center
02:32PM 42.7594 -74.0803 93° East 498 573 37,000  Level Boston Center
02:33PM 42.7497 -73.8933 94° East 498 573 37,000  Level Boston Center
02:34PM 42.7392 -73.7094 94° East 498 573 37,000  Level Boston Center
02:35PM 42.7203 -73.5225 98° East 498 573 37,000 -300 Level Boston Center
02:36PM 42.6992 -73.3328 99° East 503 579 36,500 -1,440 Descending Boston Center
02:37PM 42.6794 -73.1547 99° East 493 567 34,200 -2,580 Descending Boston Center
02:39PM 42.6394 -72.7844 98° East 488 562 28,800 -2,700 Descending Boston Center
02:40PM 42.6192 -72.6178 99° East 476 548 26,200 -2,700 Descending Boston Center
02:41PM 42.5942 -72.4400 101° East 469 540 23,500 -2,640 Descending Boston Center
02:42PM 42.5753 -72.2767 99° East 454 522 21,000 -2,520 Descending Boston Center
02:43PM 42.5542 -72.1300 101° East 421 484 18,500 -2,400 Descending Boston Center
02:44PM 42.5369 -71.9753 99° East 410 472 16,300 -2,280 Descending Boston Center
02:45PM 42.5239 -71.8289 97° East 400 460 14,000 -2,160 Descending Boston Center
02:46PM 42.5125 -71.6881 96° East 393 452 12,000 -2,100 Descending Boston Center
02:46PM 42.5000 -71.6000 101° East 352 405 10,700 -1,200 Descending KA90
02:47PM 42.5000 -71.4833 90° East 319 367 10,100 -600 Descending KA90
02:48PM 42.5000 -71.3667 90° East 306 352 9,600 -1,320 Descending KA90
02:49PM 42.5000 -71.2500 90° East 287 330 7,500 -1,980 Descending KA90
02:50PM 42.4667 -71.1667 118° Southeast 258 297 5,700 -1,260 Descending KA90
02:51PM 42.4167 -71.1333 154° Southeast 218 251 5,000 -900 Descending KA90
02:52PM 42.3667 -71.1667 206° Southwest 211 243 3,900 -1,200 Descending KA90
02:53PM 42.3414 -71.1761 195° South 183 211 3,400 -780 Descending Boston Center
02:54PM 42.3053 -71.1292 136° Southeast 173 199 2,900 -780 Descending Boston Center
02:54PM 42.3000 -71.0833 99° East 197 227 2,200 -960 Descending KA90
02:55PM 42.3167 -71.0333 66° East 155 178 1,400 -900 Descending KA90
02:56PM 42.3500 -71.0167 20° North 118 136 400 -1,020 Descending KA90